Yangon International Airport
VYYY : now visible

Airfield :











YOU CAN JOIN US ON...

 
LOGIN :

Register | Disclaimer

   EN    FR    IT 

 









Legend :    VFR   Marginal VFR   IFR   Intensive IFR   Very Intensive IFR
Visi :
Ceiling :
>= 8 km
>= 3000ft
5 to 8 km
1000 to 3000 ft
1500m to 5 km
500 to 1000 ft
800 to 1500m
200 to 500 ft
< 800m
< 200 ft
Symbols :   Thunderstorms  Fog  Heavy snow  Heavy precipitations  Wind > 20 kt






- Airport Elevation : 109 ft
- IATA code : RGN


VYYY - Yangon International

CURRENT METAR :
  • 150400Z 03008KT 8000 NSC 31/24 Q1013

EXPIRED METARs :
  • 150330Z 36002KT 8000 SCT018 29/24 Q1013 NOSIG
  • 150300Z 02005KT 7000 SCT018 29/24 Q1013 NOSIG
  • 150230Z 03005KT 8000 SCT018 28/24 Q1013 NOSIG
  • 150200Z 03005KT 7000 SCT018 27/25 Q1013 NOSIG

TAF TAF VYYY
Valid from the 15 at 00:00 until the 16 at 00:00 UTC


142300Z 1500/1524 03007KT 8000 SCT018 FEW025CB SCT110 SCT250
BECMG 1500/1502 4000 BR
TEMPO 1502/1508 09008KT
BECMG 1510/1512 27005KT 6000 HZ



MET'MAP, your aeronautical weather chart ! - Copyright ORBIFLY December 2007 - Disclaimer

ORBIFLY MET'MAP TEAM :

Programming & Development : Alexandra Zaïnal
Concept & Development : Baudouin d'Aumeries
Co-Development & Prog : Marc-Olivier Méhu
Technical & hardware support : Manuel Goepfert

Contact : metmap@orbifly.com




SOURCES & CREDITS :

   NOAA       Earth
Advisory